createdAt,value
2018-01-03T00:02:12.874Z,75.40
2018-01-03T00:04:41.138Z,75.50
2018-01-03T00:07:09.394Z,75.30
2018-01-03T00:09:36.883Z,75.20
2018-01-03T00:12:05.139Z,74.90
2018-01-03T00:14:32.648Z,74.90
2018-01-03T00:17:00.153Z,74.80
2018-01-03T00:19:27.664Z,74.90
2018-01-03T00:21:55.150Z,74.70
2018-01-03T00:24:22.639Z,74.70
2018-01-03T00:26:50.906Z,74.50
2018-01-03T00:29:18.398Z,74.40
2018-01-03T00:31:45.890Z,74.30
2018-01-03T00:34:13.380Z,74.10
2018-01-03T00:36:41.642Z,73.70
2018-01-03T00:39:09.126Z,73.60
2018-01-03T00:41:37.382Z,73.10
2018-01-03T00:44:04.891Z,73.00
2018-01-03T00:46:32.395Z,72.90
2018-01-03T00:48:59.886Z,73.50
2018-01-03T00:51:28.158Z,73.90
2018-01-03T00:53:56.422Z,73.50
2018-01-03T00:56:24.678Z,72.90
2018-01-03T00:58:52.174Z,72.70
2018-01-03T01:01:20.433Z,71.40
2018-01-03T01:03:48.690Z,71.20
2018-01-03T01:06:16.186Z,71.20
2018-01-03T01:08:44.463Z,70.90
2018-01-03T01:11:12.734Z,71.80
2018-01-03T01:13:41.006Z,71.20
2018-01-03T01:16:09.283Z,71.70
2018-01-03T01:18:37.558Z,71.80
2018-01-03T01:21:05.814Z,71.90
2018-01-03T01:23:33.307Z,71.90
2018-01-03T01:26:00.806Z,72.00
2018-01-03T01:28:28.314Z,72.40
2018-01-03T01:30:56.578Z,72.90
2018-01-03T01:33:24.839Z,73.40
2018-01-03T01:35:52.331Z,73.40
2018-01-03T01:38:19.818Z,73.80
2018-01-03T01:40:47.310Z,74.20
2018-01-03T01:43:14.804Z,74.20
2018-01-03T01:45:42.419Z,74.50
2018-01-03T01:48:09.918Z,74.60
2018-01-03T01:50:38.175Z,74.70
2018-01-03T01:53:06.470Z,75.20
2018-01-03T01:55:34.722Z,75.60
2018-01-03T01:58:02.407Z,75.70
2018-01-03T02:00:29.923Z,75.80
2018-01-03T02:02:57.414Z,76.20
2018-01-03T02:05:25.806Z,76.80
2018-01-03T02:07:54.065Z,77.30
2018-01-03T02:10:22.328Z,77.60
2018-01-03T02:12:49.831Z,77.50
2018-01-03T02:15:17.319Z,77.40
2018-01-03T02:17:44.815Z,77.00
2018-01-03T02:20:13.070Z,76.20
2018-01-03T02:22:40.580Z,76.20
2018-01-03T02:25:08.082Z,76.40
2018-01-03T02:27:35.593Z,76.40
2018-01-03T02:30:03.237Z,76.40
2018-01-03T02:32:31.491Z,76.50
2018-01-03T02:34:58.978Z,76.40
2018-01-03T02:37:27.230Z,76.20
2018-01-03T02:39:54.740Z,76.20
2018-01-03T02:42:22.362Z,76.40
2018-01-03T02:44:50.618Z,77.40
2018-01-03T02:47:18.138Z,77.30
2018-01-03T02:49:45.634Z,77.00
2018-01-03T02:52:14.630Z,76.90
2018-01-03T02:54:42.127Z,76.90
2018-01-03T02:57:09.631Z,77.20
2018-01-03T02:59:37.134Z,77.40
2018-01-03T03:02:05.398Z,77.20
2018-01-03T03:04:33.670Z,77.20
2018-01-03T03:07:01.926Z,77.20
2018-01-03T03:09:29.414Z,77.20
2018-01-03T03:11:57.671Z,76.70
2018-01-03T03:14:26.682Z,77.00
2018-01-03T03:16:54.958Z,77.20
2018-01-03T03:19:23.211Z,77.40
2018-01-03T03:21:50.716Z,77.30
2018-01-03T03:24:18.226Z,77.50
2018-01-03T03:26:45.722Z,77.90
2018-01-03T03:29:13.215Z,77.90
2018-01-03T03:31:40.928Z,78.20
2018-01-03T03:34:09.204Z,78.30
2018-01-03T03:36:37.489Z,78.10
2018-01-03T03:39:05.747Z,77.90
2018-01-03T03:41:33.239Z,77.90
2018-01-03T03:44:00.874Z,77.70
2018-01-03T03:46:29.131Z,77.40
2018-01-03T03:48:56.622Z,77.30
2018-01-03T03:51:24.138Z,77.20
2018-01-03T03:53:51.635Z,76.80
2018-01-03T03:56:19.894Z,76.00
2018-01-03T03:58:47.400Z,76.00
2018-01-03T04:01:15.743Z,76.00
2018-01-03T04:03:44.015Z,75.60
2018-01-03T04:06:12.279Z,75.40
2018-01-03T04:08:39.770Z,75.40
2018-01-03T04:11:07.406Z,75.20
2018-01-03T04:13:35.659Z,75.40
2018-01-03T04:16:03.147Z,75.40
2018-01-03T04:18:31.423Z,74.80
2018-01-03T04:20:59.698Z,74.50
2018-01-03T04:23:27.961Z,74.30
2018-01-03T04:25:55.451Z,74.30
2018-01-03T04:28:22.943Z,73.60
2018-01-03T04:30:50.442Z,73.20
2018-01-03T04:33:18.699Z,72.90
2018-01-03T04:35:46.186Z,72.80
2018-01-03T04:38:14.466Z,71.10
2018-01-03T04:40:42.723Z,70.90
2018-01-03T04:43:10.210Z,70.90
2018-01-03T04:45:37.854Z,71.40
2018-01-03T04:48:06.127Z,70.30
2018-01-03T04:50:34.378Z,70.00
2018-01-03T04:53:01.890Z,70.00
2018-01-03T04:55:29.386Z,69.40
2018-01-03T04:57:56.890Z,68.60
2018-01-03T05:00:24.384Z,68.10
2018-01-03T05:02:51.870Z,68.00
2018-01-03T05:05:19.371Z,67.80
2018-01-03T05:07:46.859Z,67.50
2018-01-03T05:10:14.362Z,67.30
2018-01-03T05:12:42.618Z,66.10
2018-01-03T05:15:10.122Z,66.10
2018-01-03T05:17:37.619Z,66.10
2018-01-03T05:20:05.127Z,66.00
2018-01-03T05:22:33.382Z,65.60
2018-01-03T05:25:00.892Z,65.50
2018-01-03T05:27:28.398Z,66.60
2018-01-03T05:29:55.889Z,65.60
2018-01-03T05:32:23.386Z,65.50
2018-01-03T05:34:50.878Z,65.20
2018-01-03T05:37:18.484Z,65.00
2018-01-03T05:39:45.994Z,64.80
2018-01-03T05:42:13.488Z,64.40
2018-01-03T05:44:40.982Z,64.20
2018-01-03T05:47:08.470Z,64.30
2018-01-03T05:49:36.742Z,63.80
2018-01-03T05:52:04.250Z,63.70
2018-01-03T05:54:31.743Z,63.80
2018-01-03T05:56:59.235Z,63.20
2018-01-03T05:59:27.495Z,63.30
2018-01-03T06:01:55.170Z,63.20
2018-01-03T06:04:23.438Z,62.80
2018-01-03T06:06:51.693Z,63.20
2018-01-03T06:09:19.974Z,62.70
2018-01-03T06:11:47.459Z,62.60
2018-01-03T06:14:15.734Z,62.60
2018-01-03T06:16:44.006Z,62.40
2018-01-03T06:19:12.286Z,62.20
2018-01-03T06:21:40.546Z,61.80
2018-01-03T06:24:08.047Z,61.70
2018-01-03T06:26:35.555Z,61.50
2018-01-03T06:29:03.047Z,61.60
2018-01-03T06:31:30.570Z,61.60
2018-01-03T06:33:58.077Z,61.90
2018-01-03T06:36:25.567Z,63.10
2018-01-03T06:38:53.055Z,65.30
2018-01-03T06:41:20.566Z,66.60
2018-01-03T06:46:42.155Z,68.40
2018-01-03T06:49:09.643Z,68.30
2018-01-03T06:51:37.152Z,69.30
2018-01-03T06:54:04.667Z,69.30
2018-01-03T06:56:32.169Z,69.50
2018-01-03T06:58:59.655Z,70.00
2018-01-03T07:01:27.911Z,71.10
2018-01-03T07:03:55.432Z,71.10
2018-01-03T07:06:22.926Z,70.80
2018-01-03T07:08:50.426Z,70.00
2018-01-03T07:11:17.927Z,70.30
2018-01-03T07:13:45.423Z,70.70
2018-01-03T07:16:13.686Z,70.80
2018-01-03T07:18:42.738Z,71.30
2018-01-03T07:21:10.971Z,72.00
2018-01-03T07:23:39.251Z,72.60
2018-01-03T07:26:07.731Z,73.00
2018-01-03T07:28:36.107Z,73.30
2018-01-03T07:31:04.391Z,73.90
2018-01-03T07:33:32.647Z,74.50
2018-01-03T07:36:00.145Z,74.50
2018-01-03T07:38:27.638Z,75.40
2018-01-03T07:40:55.150Z,76.00
2018-01-03T07:43:22.655Z,76.90
2018-01-03T07:45:50.146Z,78.80
2018-01-03T07:48:18.429Z,78.90
2018-01-03T07:50:46.903Z,79.20
2018-01-03T07:53:15.392Z,79.80
2018-01-03T07:55:43.658Z,80.30
2018-01-03T07:58:11.915Z,80.60
2018-01-03T08:00:39.411Z,80.50
2018-01-03T08:03:06.914Z,80.70
2018-01-03T08:05:34.403Z,80.70
2018-01-03T08:08:01.894Z,80.50
2018-01-03T08:10:29.406Z,80.10
2018-01-03T08:12:56.936Z,79.70
2018-01-03T08:15:24.415Z,79.60
2018-01-03T08:17:51.903Z,79.40
2018-01-03T08:20:20.164Z,78.80
2018-01-03T08:22:47.671Z,78.90
2018-01-03T08:25:15.163Z,79.10
2018-01-03T08:27:42.654Z,79.30
2018-01-03T08:30:10.919Z,77.30
2018-01-03T08:32:38.409Z,77.30
2018-01-03T08:35:05.906Z,77.10
2018-01-03T08:37:33.399Z,77.00
2018-01-03T08:40:01.663Z,77.30
2018-01-03T08:42:29.155Z,77.20
2018-01-03T08:44:56.643Z,77.20
2018-01-03T08:47:24.135Z,77.10
2018-01-03T08:49:51.623Z,77.10
2018-01-03T08:52:19.881Z,74.60
2018-01-03T08:54:47.391Z,74.60
2018-01-03T08:57:14.899Z,73.20
2018-01-03T08:59:42.390Z,73.30
2018-01-03T09:02:09.879Z,73.20
2018-01-03T09:04:37.371Z,72.40
2018-01-03T09:07:04.883Z,72.80
2018-01-03T09:09:32.375Z,71.90
2018-01-03T09:12:00.641Z,71.40
2018-01-03T09:14:28.131Z,71.40
2018-01-03T09:16:56.409Z,71.10
2018-01-03T09:19:24.690Z,71.00
2018-01-03T09:21:52.967Z,70.50
2018-01-03T09:24:21.342Z,70.20
2018-01-03T09:26:49.602Z,69.50
2018-01-03T09:29:17.118Z,69.50
2018-01-03T09:31:44.637Z,69.40
2018-01-03T09:34:13.112Z,70.30
2018-01-03T09:36:41.371Z,71.20
2018-01-03T09:39:08.863Z,71.10
2018-01-03T09:41:36.366Z,71.70
2018-01-03T09:44:03.878Z,72.30
2018-01-03T09:46:31.369Z,72.90
2018-01-03T09:48:58.878Z,74.30
2018-01-03T09:51:27.376Z,74.60
2018-01-03T09:53:54.876Z,74.60
2018-01-03T09:56:22.479Z,75.00
2018-01-03T09:58:50.744Z,75.20
2018-01-03T10:01:18.260Z,75.10
2018-01-03T10:03:45.750Z,75.00
2018-01-03T10:06:13.251Z,74.70
2018-01-03T10:08:40.742Z,74.20
2018-01-03T10:11:08.274Z,73.50
2018-01-03T10:13:35.771Z,73.10
2018-01-03T10:16:03.263Z,72.30
2018-01-03T10:18:31.539Z,72.40
2018-01-03T10:20:59.943Z,72.90
2018-01-03T10:23:27.447Z,72.90
2018-01-03T10:25:54.967Z,72.50
2018-01-03T10:28:22.463Z,72.40
2018-01-03T10:30:49.959Z,71.90
2018-01-03T10:33:18.220Z,70.00
2018-01-03T10:35:45.717Z,70.00
2018-01-03T10:38:13.329Z,70.10
2018-01-03T10:40:41.635Z,69.10
2018-01-03T10:43:09.901Z,68.30
2018-01-03T10:45:38.194Z,68.00
2018-01-03T10:48:05.695Z,67.90
2018-01-03T10:50:33.218Z,66.90
2018-01-03T10:53:01.483Z,67.00
2018-01-03T10:55:29.742Z,64.90
2018-01-03T10:57:58.236Z,64.90
2018-01-03T11:00:26.500Z,64.80
2018-01-03T11:02:54.763Z,64.30
2018-01-03T11:05:22.269Z,64.20
2018-01-03T11:07:49.760Z,64.40
2018-01-03T11:10:17.314Z,64.60
2018-01-03T11:12:45.992Z,64.30
2018-01-03T11:15:13.520Z,64.50
2018-01-03T11:17:41.043Z,65.50
2018-01-03T11:20:08.556Z,66.00
2018-01-03T11:22:36.065Z,64.80
2018-01-03T11:25:03.555Z,70.00
2018-01-03T11:27:31.059Z,70.70
2018-01-03T11:29:58.558Z,71.90
2018-01-03T11:32:26.814Z,75.10
2018-01-03T11:34:54.312Z,75.10
2018-01-03T11:37:21.806Z,75.40
2018-01-03T11:39:49.299Z,75.60
2018-01-03T11:42:16.803Z,74.80
2018-01-03T11:44:44.299Z,74.70
2018-01-03T11:47:11.790Z,75.90
2018-01-03T11:49:39.299Z,75.30
2018-01-03T11:52:06.783Z,75.20
2018-01-03T11:54:35.051Z,75.60
2018-01-03T11:57:02.553Z,75.60
2018-01-03T11:59:30.050Z,76.00
2018-01-03T12:01:57.666Z,75.90
2018-01-03T12:04:25.178Z,76.10
2018-01-03T12:06:52.667Z,76.70
2018-01-03T12:09:20.926Z,78.30
2018-01-03T12:11:48.603Z,78.20
2018-01-03T12:14:16.854Z,78.90
2018-01-03T12:16:44.347Z,78.90
2018-01-03T12:19:12.620Z,79.70
2018-01-03T12:21:40.874Z,80.00
2018-01-03T12:24:08.370Z,80.00
2018-01-03T12:26:35.870Z,80.80
2018-01-03T12:29:03.380Z,81.70
2018-01-03T12:31:30.871Z,82.40
2018-01-03T12:33:58.398Z,82.90
2018-01-03T12:36:25.895Z,83.20
2018-01-03T12:38:53.410Z,83.90
2018-01-03T12:41:21.058Z,87.10
2018-01-03T12:43:49.311Z,91.70
2018-01-03T12:46:16.826Z,91.70
2018-01-03T12:48:44.455Z,92.10
2018-01-03T12:51:12.715Z,92.30
2018-01-03T12:53:40.391Z,91.90
2018-01-03T12:56:08.647Z,91.50
2018-01-03T12:58:36.156Z,91.50
2018-01-03T13:01:03.658Z,90.70
2018-01-03T13:03:31.151Z,90.40
2018-01-03T13:05:59.419Z,90.40
2018-01-03T13:08:27.800Z,90.00
2018-01-03T13:10:56.055Z,89.50
2018-01-03T13:13:23.550Z,89.50
2018-01-03T13:15:51.047Z,88.90
2018-01-03T13:18:18.539Z,89.00
2018-01-03T13:20:46.803Z,88.60
2018-01-03T13:23:14.311Z,87.70
2018-01-03T13:25:41.799Z,87.70
2018-01-03T13:28:09.294Z,87.60
2018-01-03T13:30:37.554Z,87.60
2018-01-03T13:33:05.240Z,87.60
2018-01-03T13:35:33.510Z,87.30
2018-01-03T13:38:01.774Z,87.70
2018-01-03T13:40:29.274Z,87.60
2018-01-03T13:42:56.776Z,87.50
2018-01-03T13:45:24.283Z,87.30
2018-01-03T13:47:51.922Z,86.80
2018-01-03T13:50:20.187Z,86.60
2018-01-03T13:52:47.765Z,86.50
2018-01-03T13:55:15.224Z,87.60
2018-01-03T13:57:43.489Z,85.30
2018-01-03T14:00:11.768Z,85.40
2018-01-03T14:02:40.023Z,85.10
2018-01-03T14:05:07.523Z,85.00
2018-01-03T14:07:35.034Z,84.90
2018-01-03T14:10:02.523Z,84.10
2018-01-03T14:12:30.790Z,84.00
2018-01-03T14:14:59.072Z,83.30
2018-01-03T14:17:27.334Z,83.30
2018-01-03T14:19:54.843Z,83.30
2018-01-03T14:22:22.335Z,83.30
2018-01-03T14:24:50.026Z,83.70
2018-01-03T14:27:18.296Z,83.00
2018-01-03T14:29:45.788Z,83.00
2018-01-03T14:32:13.283Z,82.60
2018-01-03T14:34:40.790Z,82.50
2018-01-03T14:37:09.042Z,81.90
2018-01-03T14:39:36.550Z,81.90
2018-01-03T14:42:04.058Z,82.00
2018-01-03T14:44:31.547Z,81.70
2018-01-03T14:46:59.039Z,81.60
2018-01-03T14:49:26.551Z,80.70
2018-01-03T14:51:54.818Z,80.60
2018-01-03T14:54:23.095Z,80.80
2018-01-03T14:56:51.354Z,80.50
2018-01-03T14:59:18.863Z,80.50
2018-01-03T15:01:46.363Z,81.00
2018-01-03T15:04:13.863Z,80.60
2018-01-03T15:06:41.359Z,80.30
2018-01-03T15:09:08.851Z,79.60
2018-01-03T15:11:36.346Z,79.00
2018-01-03T15:14:03.859Z,78.60
2018-01-03T15:16:31.371Z,78.60
2018-01-03T15:18:58.886Z,79.10
2018-01-03T15:21:26.386Z,79.00
2018-01-03T15:23:53.878Z,79.50
2018-01-03T15:26:21.370Z,78.00
2018-01-03T15:28:49.623Z,77.70
2018-01-03T15:31:17.115Z,77.70
2018-01-03T15:33:45.383Z,75.70
2018-01-03T15:36:13.650Z,75.50
2018-01-03T15:38:41.914Z,75.10
2018-01-03T15:41:09.423Z,75.10
2018-01-03T15:43:36.911Z,77.20
2018-01-03T15:46:04.420Z,75.90
2018-01-03T15:48:32.678Z,73.20
2018-01-03T15:51:00.959Z,72.90
2018-01-03T15:53:29.219Z,73.00
2018-01-03T15:55:57.002Z,73.00
2018-01-03T15:58:25.263Z,73.20
2018-01-03T16:00:52.755Z,73.20
2018-01-03T16:03:20.268Z,73.90
2018-01-03T16:05:47.762Z,73.00
2018-01-03T16:08:16.249Z,72.30
2018-01-03T16:10:43.755Z,72.30
2018-01-03T16:13:11.245Z,72.40
2018-01-03T16:15:39.498Z,71.80
2018-01-03T16:18:07.002Z,72.60
2018-01-03T16:20:34.511Z,72.00
2018-01-03T16:23:02.002Z,71.70
2018-01-03T16:25:30.276Z,72.00
2018-01-03T16:27:58.539Z,71.60
2018-01-03T16:30:26.051Z,71.60
2018-01-03T16:32:53.554Z,71.60
2018-01-03T16:35:21.047Z,71.40
2018-01-03T16:37:48.547Z,71.50
2018-01-03T16:40:16.039Z,71.30
2018-01-03T16:42:44.427Z,70.80
2018-01-03T16:45:12.683Z,70.60
2018-01-03T16:47:40.186Z,70.50
2018-01-03T16:50:07.683Z,70.80
2018-01-03T16:52:40.835Z,71.40
2018-01-03T16:55:08.331Z,71.30
2018-01-03T16:57:36.549Z,71.30
2018-01-03T17:00:04.055Z,71.90
2018-01-03T17:02:31.703Z,72.30
2018-01-03T17:04:59.196Z,72.00
2018-01-03T17:07:26.706Z,72.00
2018-01-03T17:09:54.205Z,71.90
2018-01-03T17:12:21.703Z,72.10
2018-01-03T17:14:50.358Z,71.30
2018-01-03T17:17:17.866Z,71.30
2018-01-03T17:19:45.376Z,71.30
2018-01-03T17:22:12.863Z,70.80
2018-01-03T17:24:41.119Z,71.00
2018-01-03T17:27:09.424Z,71.20
2018-01-03T17:29:36.931Z,71.20
2018-01-03T17:32:04.427Z,70.90
2018-01-03T17:34:32.683Z,70.80
2018-01-03T17:37:00.367Z,70.80
2018-01-03T17:39:28.673Z,70.20
2018-01-03T17:41:56.302Z,70.20
2018-01-03T17:44:24.575Z,70.40
2018-01-03T17:46:52.830Z,69.80
2018-01-03T17:49:20.515Z,69.80
2018-01-03T17:51:48.770Z,69.30
2018-01-03T17:54:16.259Z,69.30
2018-01-03T17:56:44.515Z,68.80
2018-01-03T17:59:12.027Z,68.80
2018-01-03T18:01:39.514Z,68.20
2018-01-03T18:04:07.003Z,68.60
2018-01-03T18:06:35.264Z,68.80
2018-01-03T18:09:03.536Z,68.40
2018-01-03T18:11:31.033Z,68.40
2018-01-03T18:13:58.523Z,68.50
2018-01-03T18:16:26.026Z,69.10
2018-01-03T18:18:54.286Z,69.70
2018-01-03T18:21:21.794Z,69.60
2018-01-03T18:23:49.289Z,69.60
2018-01-03T18:26:16.793Z,70.00
2018-01-03T18:28:44.436Z,69.90
2018-01-03T18:31:12.706Z,70.30
2018-01-03T18:33:40.975Z,70.10
2018-01-03T18:36:09.976Z,70.50
2018-01-03T18:38:38.238Z,70.80
2018-01-03T18:41:05.731Z,70.80
2018-01-03T18:43:33.244Z,71.10
2018-01-03T18:46:00.732Z,71.10
2018-01-03T18:48:28.991Z,71.30
2018-01-03T18:50:56.510Z,71.30
2018-01-03T18:53:24.038Z,71.60
2018-01-03T18:55:51.513Z,71.20
2018-01-03T18:58:19.006Z,71.20
2018-01-03T19:00:46.514Z,71.70
2018-01-03T19:03:14.011Z,71.50
2018-01-03T19:05:41.509Z,71.50
2018-01-03T19:08:09.771Z,70.60
2018-01-03T19:10:37.259Z,70.70
2018-01-03T19:13:05.516Z,71.00
2018-01-03T19:15:33.026Z,70.90
2018-01-03T19:18:00.660Z,71.00
2018-01-03T19:20:28.175Z,70.40
2018-01-03T19:22:55.668Z,70.70
2018-01-03T19:25:23.980Z,70.80
2018-01-03T19:27:52.246Z,70.70
2018-01-03T19:30:19.772Z,70.70
2018-01-03T19:32:48.048Z,71.10
2018-01-03T19:35:16.345Z,71.00
2018-01-03T19:37:43.918Z,71.00
2018-01-03T19:40:11.412Z,71.00
2018-01-03T19:42:38.939Z,70.60
2018-01-03T19:45:06.477Z,70.60
2018-01-03T19:47:34.750Z,70.40
2018-01-03T19:50:03.024Z,69.80
2018-01-03T19:52:30.523Z,69.80
2018-01-03T19:54:58.035Z,69.70
2018-01-03T19:57:26.291Z,70.10
2018-01-03T19:59:53.818Z,70.00
2018-01-03T20:02:21.367Z,69.60
2018-01-03T20:04:48.880Z,69.90
2018-01-03T20:07:17.392Z,69.70
2018-01-03T20:09:44.907Z,69.70
2018-01-03T20:12:12.423Z,69.50
2018-01-03T20:14:39.919Z,69.30
2018-01-03T20:17:07.530Z,68.80
2018-01-03T20:19:35.046Z,68.80
2018-01-03T20:22:02.572Z,68.60
2018-01-03T20:24:30.103Z,68.60
2018-01-03T20:26:57.616Z,68.50
2018-01-03T20:29:25.132Z,68.40
2018-01-03T20:31:52.650Z,69.00
2018-01-03T20:34:20.915Z,68.20
2018-01-03T20:36:49.942Z,68.00
2018-01-03T20:39:17.449Z,67.90
2018-01-03T20:41:45.708Z,68.00
2018-01-03T20:44:13.249Z,67.50
2018-01-03T20:46:40.763Z,67.60
2018-01-03T20:49:09.067Z,67.70
2018-01-03T20:51:36.583Z,67.70
2018-01-03T20:54:04.117Z,67.90
2018-01-03T20:56:31.657Z,67.60
2018-01-03T20:58:59.222Z,67.00
2018-01-03T21:01:27.614Z,66.20
2018-01-03T21:03:55.241Z,66.20
2018-01-03T21:06:23.510Z,65.70
2018-01-03T21:08:51.795Z,66.50
2018-01-03T21:11:20.088Z,65.40
2018-01-03T21:13:47.633Z,65.30
2018-01-03T21:16:15.924Z,64.60
2018-01-03T21:18:43.449Z,64.60
2018-01-03T21:21:11.780Z,64.20
2018-01-03T21:23:39.317Z,64.10
2018-01-03T21:26:06.819Z,64.00
2018-01-03T21:28:34.317Z,63.70
2018-01-03T21:31:01.831Z,63.70
2018-01-03T21:33:29.327Z,63.80
2018-01-03T21:35:57.586Z,63.80
2018-01-03T21:38:25.092Z,63.70
2018-01-03T21:40:52.595Z,63.50
2018-01-03T21:43:20.088Z,63.60
2018-01-03T21:45:48.348Z,62.30
2018-01-03T21:48:16.602Z,62.60
2018-01-03T21:50:44.095Z,62.50
2018-01-03T21:53:12.358Z,62.30
2018-01-03T21:55:39.862Z,62.20
2018-01-03T21:58:07.371Z,62.60
2018-01-03T22:00:34.863Z,62.00
2018-01-03T22:03:02.375Z,62.10
2018-01-03T22:05:29.887Z,61.30
2018-01-03T22:07:57.386Z,61.20
2018-01-03T22:10:24.890Z,61.40
2018-01-03T22:12:52.378Z,61.30
2018-01-03T22:15:19.873Z,61.30
2018-01-03T22:17:47.367Z,61.90
2018-01-03T22:20:14.856Z,61.50
2018-01-03T22:22:42.583Z,61.50
2018-01-03T22:25:10.855Z,61.80
2018-01-03T22:27:39.111Z,60.90
2018-01-03T22:30:07.382Z,61.00
2018-01-03T22:32:34.872Z,60.80
2018-01-03T22:35:02.371Z,61.00
2018-01-03T22:37:29.870Z,61.50
2018-01-03T22:39:58.149Z,61.50
2018-01-03T22:42:26.402Z,61.50
2018-01-03T22:44:53.895Z,61.50
2018-01-03T22:47:22.166Z,60.80
2018-01-03T22:49:50.434Z,61.00
2018-01-03T22:52:18.716Z,60.90
2018-01-03T22:54:46.974Z,60.10
2018-01-03T22:57:14.484Z,60.10
2018-01-03T22:59:41.975Z,59.70
2018-01-03T23:02:09.478Z,59.70
2018-01-03T23:04:36.983Z,59.40
2018-01-03T23:07:04.483Z,59.60
2018-01-03T23:09:32.740Z,59.40
2018-01-03T23:12:00.244Z,59.30
2018-01-03T23:14:27.759Z,59.00
2018-01-03T23:16:55.257Z,58.80
2018-01-03T23:19:22.752Z,58.90
2018-01-03T23:21:50.247Z,59.00
2018-01-03T23:24:18.526Z,59.00
2018-01-03T23:26:46.801Z,59.30
2018-01-03T23:29:15.059Z,59.40
2018-01-03T23:31:42.555Z,59.40
2018-01-03T23:34:10.072Z,59.60
2018-01-03T23:36:37.567Z,60.20
2018-01-03T23:39:05.075Z,59.90
2018-01-03T23:41:32.571Z,60.40
2018-01-03T23:44:00.831Z,60.80
2018-01-03T23:46:29.840Z,61.20
2018-01-03T23:48:58.099Z,61.20
2018-01-03T23:51:25.611Z,61.00
2018-01-03T23:53:53.111Z,61.20
2018-01-03T23:56:20.607Z,61.20
2018-01-03T23:58:48.109Z,61.10
